Burlington, WA (98233)

12:23 PM PDT on October 01, 2014 (GMT -0700)
Bow | Change Station
CLOSE
Current Station
Personal Weather Station
Location: Bow, WA
Elevation: 85 ft
Nearby Weather Stations

Elev 85 ft 48.54 °N, 122.37 °W | Updated 36 seconds ago

Overcast
Overcast
61.0 °F
Feels Like 61.0 °F
N
5.4
Wind Variable Wind from SSW
Gusts 5.4 mph

Today
High -- | Low -- °F
--% Chance of Precip.
Yesterday
High -- | Low -- °F
Precip. -- in
7:09 AM 6:48 PM
Waxing Crescent, 50% visible
Pressure 30.22 in
Visibility 10.0 miles
Clouds Scattered Clouds 1700 ft
Mostly Cloudy 2400 ft
Overcast 6000 ft
Dew Point 53 °F
Humidity 75%
Rainfall 0.00 in
Snow Depth 0 in , 0 in , 0 in
UV 1 out of 12
Pollen 1.30 out of 12
PM2.5 Good
Flu Activity Not available.
METAR KBVS 011855Z AUTO 20007KT 10SM SCT017 BKN024 OVC060 16/12 A3022 RMK A01 P000

More Conditions Fewer Conditions

Pressure 30.22 in
Visibility 10.0 miles
Clouds Scattered Clouds 1700 ft
Mostly Cloudy 2400 ft
Overcast 6000 ft
Dew Point 53 °F
Humidity 75%
Rainfall 0.00 in
Snow Depth 0 in , 0 in , 0 in
UV 1 out of 12
Pollen 1.30 out of 12
PM2.5 Good
Flu Activity Not available.
METAR KBVS 011855Z AUTO 20007KT 10SM SCT017 BKN024 OVC060 16/12 A3022 RMK A01 P000

More Conditions Fewer Conditions

10-Day Weather Forecast

Almanac

Astronomy

Oct. 01, 2014 Rise Set
Actual Time 7:09 AM PDT 6:48 PM PDT
Civil Twilight 6:37 AM PDT 7:19 PM PDT
Nautical Twilight 6:01 AM PDT 7:55 PM PDT
Astronomical Twilight 5:24 AM PDT 8:32 PM PDT
Moon 2:34 PM PDT No Moon Set
Length of Visible Light 12h 41m
Length of Day
11h 39m
Tomorrow will be 3m 30s shorter.
Waxing Crescent, 50% of the Moon is Illuminated
Today
Waxing Crescent
Oct 1
First Quarter
Oct 8
Full
Oct 15
Last Quarter
Oct 23
New

Today's Extremes

State Highs State Lows

Community

WunderPhotos

Upload Photos

1,758,010 photos uploaded!

WunderBlogs® & News

Nearby

Air Quality

  Air Quality AQ Index Pollutant
Yesterday Good
OZONE
Yesterday Good
PM2.5
Current Good
PM2.5
Wednesday Good
OZONE
Wednesday Good
PM2.5
Thursday Good
OZONE
Thursday Good
PM2.5
Friday Good
OZONE
Friday Good
PM2.5

Snow Depth

Station Depth Elevation
Wells Creek 0 in 4200 ft
Stampede Pass 0 in 3860 ft
Spruce Springs 0 in 5700 ft
Sheep Canyon 0 in 4030 ft
Grouse Camp 0 in 5380 ft

Earthquake Activity

City Distance Mag. Time & Date
No recent earthquake activity has been reported nearby.
Minimum magnitude displayed is 2.5.

Coastal Water Temperatures

Place Temperature
Port Townsend, WA 52.0 °F
Friday Harbor, WA 51.1 °F
Port Angeles, WA 51.1 °F

Nearby Weather Stations